Time;durP1;ratioP1;P1;durP2;ratioP2;P2;SDS_P1;SDS_P2;PMS_P1;PMS_P2;Temp;Humidity;BMP_temperature;BMP_pressure;BME280_temperature;BME280_humidity;BME280_pressure;Samples;Min_cycle;Max_cycle;Signal;HPM_P1;HPM_P2
2023/07/02 00:01:46;;;;;;;10.70;6.60;;;;;;;19.80;88.97;94037.63;5094900;28;20687;-45
2023/07/02 00:04:16;;;;;;;8.48;5.80;;;;;;;19.76;88.84;94039.03;5111454;28;20636;-45
2023/07/02 00:06:44;;;;;;;8.30;6.63;;;;;;;19.36;88.80;93968.47;5111237;28;20189;-44
2023/07/02 00:09:11;;;;;;;10.53;7.13;;;;;;;19.81;89.59;94034.00;5111265;28;20232;-43
2023/07/02 00:11:38;;;;;;;11.43;7.35;;;;;;;19.72;89.57;94030.09;5110735;28;20193;-44
2023/07/02 00:14:05;;;;;;;11.55;6.60;;;;;;;19.71;89.73;94034.47;5111103;28;20188;-44
2023/07/02 00:16:32;;;;;;;8.43;5.85;;;;;;;19.40;89.76;93982.59;5110878;28;20189;-45
2023/07/02 00:18:59;;;;;;;12.82;6.57;;;;;;;19.61;90.43;94020.41;5110981;28;20185;-43
2023/07/02 00:21:27;;;;;;;11.15;6.50;;;;;;;19.62;90.49;94016.78;5111074;28;20272;-45
2023/07/02 00:23:57;;;;;;;11.48;6.57;;;;;;;19.61;90.50;94013.41;5111407;28;20640;-44
2023/07/02 00:26:25;;;;;;;8.27;5.67;;;;;;;19.58;90.86;94020.78;5110818;28;20224;-45
2023/07/02 00:28:51;;;;;;;9.63;6.00;;;;;;;19.55;90.63;94027.97;5110562;28;20316;-44
2023/07/02 00:31:18;;;;;;;8.97;5.90;;;;;;;19.60;90.86;94021.34;5110850;28;20268;-44
2023/07/02 00:33:45;;;;;;;14.17;5.53;;;;;;;19.57;90.80;94034.75;5111106;28;20667;-44
2023/07/02 00:36:14;;;;;;;8.50;6.20;;;;;;;19.54;91.11;94041.94;5110435;28;20199;-44
2023/07/02 00:38:42;;;;;;;7.53;5.68;;;;;;;19.51;91.26;94029.38;5111018;28;20181;-43
2023/07/02 00:41:11;;;;;;;8.93;6.57;;;;;;;19.58;91.53;94041.53;5110328;28;20246;-45
2023/07/02 00:43:43;;;;;;;8.57;6.13;;;;;;;19.53;91.60;94044.75;5110907;28;20238;-42
2023/07/02 00:46:12;;;;;;;10.50;6.77;;;;;;;19.55;91.52;94040.13;5110203;28;20211;-44
2023/07/02 00:48:40;;;;;;;8.25;5.65;;;;;;;19.47;91.91;94038.59;5110416;28;20688;-45
2023/07/02 00:51:07;;;;;;;11.50;6.10;;;;;;;19.58;92.26;94044.91;5110100;28;20288;-45
2023/07/02 00:53:33;;;;;;;10.17;6.90;;;;;;;19.53;91.87;94035.16;5110187;28;20253;-42
2023/07/02 00:56:00;;;;;;;9.73;6.03;;;;;;;19.59;91.87;94045.72;5110539;28;20252;-43
2023/07/02 00:58:29;;;;;;;12.57;6.57;;;;;;;19.47;91.49;94010.09;5110228;28;20184;-44
2023/07/02 01:00:56;;;;;;;7.77;5.97;;;;;;;19.58;91.92;94018.19;5110419;28;20274;-44
2023/07/02 01:03:23;;;;;;;9.30;5.87;;;;;;;19.62;91.82;94027.16;5110037;28;20633;-44
2023/07/02 01:05:50;;;;;;;8.68;6.32;;;;;;;19.58;91.96;94023.38;5110694;28;20180;-44
2023/07/02 01:08:16;;;;;;;7.88;5.28;;;;;;;19.44;92.31;94013.09;5110031;28;20189;-44
2023/07/02 01:10:43;;;;;;;7.93;5.83;;;;;;;19.41;92.29;94020.47;5110108;28;20237;-44
2023/07/02 01:13:16;;;;;;;6.67;5.70;;;;;;;19.44;92.87;94025.25;5109917;28;20195;-41
2023/07/02 01:15:46;;;;;;;13.77;5.87;;;;;;;19.44;93.24;94023.44;5110066;28;20192;-42
2023/07/02 01:18:14;;;;;;;11.43;6.90;;;;;;;19.46;93.27;94031.00;5110151;28;20196;-42
2023/07/02 01:20:44;;;;;;;8.10;5.77;;;;;;;19.40;93.48;94019.69;5110301;28;20220;-43
2023/07/02 01:23:11;;;;;;;10.20;6.70;;;;;;;19.36;93.60;94015.13;5110046;28;20193;-43
2023/07/02 01:25:38;;;;;;;11.23;7.13;;;;;;;19.31;93.77;93992.41;5110455;28;20189;-43
2023/07/02 01:28:05;;;;;;;9.00;6.63;;;;;;;19.32;93.59;94001.78;5109782;28;20224;-44
2023/07/02 01:30:31;;;;;;;8.83;6.77;;;;;;;19.26;94.37;93997.44;5110200;28;20304;-43
2023/07/02 01:32:58;;;;;;;8.63;6.33;;;;;;;19.26;94.52;94000.03;5109698;28;20192;-43
2023/07/02 01:35:25;;;;;;;8.13;6.53;;;;;;;19.27;94.50;94002.41;5110401;28;20184;-44
2023/07/02 01:37:53;;;;;;;9.37;6.97;;;;;;;19.22;95.21;94002.25;5110064;28;20185;-42
2023/07/02 01:40:20;;;;;;;9.53;7.20;;;;;;;19.20;95.18;94008.63;5109653;28;20693;-45
2023/07/02 01:42:47;;;;;;;8.70;7.20;;;;;;;19.28;95.12;94009.19;5110041;28;20192;-42
2023/07/02 01:45:13;;;;;;;9.17;6.50;;;;;;;19.24;96.30;94002.03;5109638;28;20564;-44
2023/07/02 01:47:40;;;;;;;12.27;6.70;;;;;;;19.23;96.73;94006.41;5109935;28;20185;-44
2023/07/02 01:50:08;;;;;;;8.53;6.77;;;;;;;19.26;97.06;94013.78;5109407;28;20221;-44
2023/07/02 01:52:34;;;;;;;10.33;6.23;;;;;;;19.31;97.10;94002.78;5109935;28;20606;-42
2023/07/02 01:55:03;;;;;;;7.83;6.23;;;;;;;19.39;97.66;93997.38;5109836;28;20239;-45
2023/07/02 01:57:31;;;;;;;11.03;6.37;;;;;;;19.30;98.07;93996.03;5110143;28;20196;-43
2023/07/02 01:59:58;;;;;;;8.60;7.03;;;;;;;19.31;97.79;94002.78;5109636;28;20237;-43
2023/07/02 02:02:25;;;;;;;11.57;6.30;;;;;;;19.36;97.88;93979.63;5109859;28;20253;-43
2023/07/02 02:04:52;;;;;;;9.77;7.30;;;;;;;19.35;98.46;93974.66;5110347;28;20212;-42
2023/07/02 02:07:19;;;;;;;8.75;6.68;;;;;;;19.36;98.19;93999.56;5113646;28;20285;-41
2023/07/02 02:09:45;;;;;;;10.48;6.47;;;;;;;19.29;98.19;93984.03;5114027;28;20224;-43
2023/07/02 02:12:14;;;;;;;9.87;7.33;;;;;;;19.38;97.83;93987.19;5113569;28;20665;-42
2023/07/02 02:14:42;;;;;;;11.37;7.40;;;;;;;19.34;97.73;93991.97;5113646;28;20253;-42
2023/07/02 02:17:08;;;;;;;7.63;6.30;;;;;;;19.37;97.90;93980.41;5113091;28;20307;-43
2023/07/02 02:19:35;;;;;;;11.23;6.83;;;;;;;19.35;98.20;93985.81;5113314;28;20192;-45
2023/07/02 02:22:02;;;;;;;10.00;6.57;;;;;;;19.32;98.29;93981.03;5113438;28;20188;-45
2023/07/02 02:24:29;;;;;;;11.90;6.83;;;;;;;19.29;98.09;93971.06;5113386;28;20729;-46
2023/07/02 02:26:56;;;;;;;10.27;7.10;;;;;;;19.25;98.25;93978.47;5113262;28;20186;-44
2023/07/02 02:29:24;;;;;;;9.93;6.87;;;;;;;19.23;98.18;93966.75;5113053;28;20232;-47
2023/07/02 02:31:51;;;;;;;9.93;6.30;;;;;;;19.21;98.25;93956.59;5113119;28;20185;-44
2023/07/02 02:34:18;;;;;;;8.87;6.90;;;;;;;19.20;99.27;93967.94;5112920;28;20212;-46
2023/07/02 02:36:44;;;;;;;8.87;6.93;;;;;;;19.20;99.26;93970.53;5113198;28;20287;-43
2023/07/02 02:39:11;;;;;;;11.10;6.90;;;;;;;19.18;99.93;93967.38;5113320;28;20197;-46
2023/07/02 02:41:38;;;;;;;11.60;7.03;;;;;;;19.19;100.00;93961.16;5113108;28;20254;-44
2023/07/02 02:44:05;;;;;;;10.17;7.23;;;;;;;19.06;100.00;93956.06;5113075;28;20184;-44
2023/07/02 02:46:33;;;;;;;9.93;7.03;;;;;;;19.03;100.00;93961.66;5112971;28;20246;-43
2023/07/02 02:49:00;;;;;;;11.17;7.10;;;;;;;19.01;99.84;93971.44;5112432;28;20197;-44
2023/07/02 02:51:27;;;;;;;9.73;7.50;;;;;;;19.00;99.44;93988.78;5112782;28;20193;-43
2023/07/02 02:53:53;;;;;;;8.37;7.10;;;;;;;18.95;99.14;93991.19;5112637;28;20185;-43
2023/07/02 02:56:20;;;;;;;11.17;6.90;;;;;;;18.94;99.32;93991.41;5112626;28;20200;-43
2023/07/02 02:58:47;;;;;;;10.30;7.00;;;;;;;18.95;98.75;93992.97;5112435;28;20188;-43
2023/07/02 03:01:14;;;;;;;11.47;6.83;;;;;;;18.93;98.16;93982.03;5112325;28;20197;-46
2023/07/02 03:03:45;;;;;;;10.80;7.43;;;;;;;18.96;97.55;93985.03;5112364;28;20189;-46
2023/07/02 03:06:12;;;;;;;13.17;7.10;;;;;;;18.96;96.91;93989.41;5112571;28;20189;-43
2023/07/02 03:08:40;;;;;;;10.70;6.17;;;;;;;18.92;96.53;93968.28;5112668;28;20195;-44
2023/07/02 03:11:07;;;;;;;10.37;6.90;;;;;;;18.89;96.62;93965.31;5112234;28;20703;-44
2023/07/02 03:13:34;;;;;;;8.40;6.20;;;;;;;18.97;96.67;93980.63;5112257;28;20215;-44
2023/07/02 03:16:01;;;;;;;11.00;6.93;;;;;;;19.01;96.30;93976.63;5112276;28;20271;-45
2023/07/02 03:18:27;;;;;;;9.17;6.43;;;;;;;19.05;96.48;93983.78;5112718;28;20189;-44
2023/07/02 03:20:55;;;;;;;10.47;6.53;;;;;;;19.09;96.57;93988.56;5112623;28;20204;-44
2023/07/02 03:23:22;;;;;;;9.77;6.83;;;;;;;19.15;95.92;94004.06;5112250;28;20188;-44
2023/07/02 03:25:49;;;;;;;8.90;6.30;;;;;;;19.24;95.74;94017.56;5112049;28;20177;-43
2023/07/02 03:28:16;;;;;;;9.53;6.73;;;;;;;19.28;95.43;94016.16;5111883;28;20568;-45
2023/07/02 03:30:43;;;;;;;11.00;6.53;;;;;;;19.26;95.36;94003.41;5111807;28;20699;-45
2023/07/02 03:33:10;;;;;;;9.23;6.00;;;;;;;19.34;95.22;94017.91;5111752;28;20192;-45
2023/07/02 03:35:37;;;;;;;8.90;6.53;;;;;;;19.42;94.69;94012.47;5111988;28;20211;-44
2023/07/02 03:38:05;;;;;;;7.70;5.93;;;;;;;19.48;94.46;94009.06;5111644;28;20188;-45
2023/07/02 03:40:32;;;;;;;10.63;7.18;;;;;;;19.53;94.33;94011.03;5111720;28;20276;-43
2023/07/02 03:42:59;;;;;;;13.07;6.67;;;;;;;19.60;94.84;94008.38;5111686;28;20196;-44
2023/07/02 03:45:26;;;;;;;14.52;7.35;;;;;;;19.67;94.56;94007.38;5111495;28;20227;-42
2023/07/02 03:47:53;;;;;;;8.47;6.73;;;;;;;19.73;94.41;93998.75;5111642;28;20189;-44
2023/07/02 03:50:20;;;;;;;11.10;6.40;;;;;;;19.77;94.36;93999.94;5111515;28;20221;-47
2023/07/02 03:52:46;;;;;;;9.83;7.33;;;;;;;19.77;93.74;93999.94;5111973;28;20192;-44
2023/07/02 03:55:15;;;;;;;10.00;6.45;;;;;;;19.81;93.72;93997.69;5111642;28;20185;-44
2023/07/02 03:57:42;;;;;;;12.23;6.88;;;;;;;19.82;93.42;93996.69;5112549;28;20185;-45
2023/07/02 04:00:11;;;;;;;9.52;7.15;;;;;;;19.83;92.81;93995.69;5111778;28;20192;-44
2023/07/02 04:02:37;;;;;;;11.32;6.97;;;;;;;19.92;93.08;93996.22;5112364;28;20193;-45
2023/07/02 04:05:05;;;;;;;8.83;6.63;;;;;;;19.85;93.57;93995.47;5111779;28;20572;-45
2023/07/02 04:07:32;;;;;;;15.25;6.90;;;;;;;19.92;93.74;93997.00;5110930;28;20185;-44
2023/07/02 04:09:59;;;;;;;8.48;5.90;;;;;;;19.95;93.65;93990.63;5111109;28;20726;-45
2023/07/02 04:12:27;;;;;;;13.50;6.63;;;;;;;19.75;93.67;93982.97;5111051;28;20303;-43
2023/07/02 04:14:54;;;;;;;9.20;6.43;;;;;;;19.74;93.56;93979.59;5111406;28;20208;-45
2023/07/02 04:17:21;;;;;;;10.07;6.78;;;;;;;19.96;93.15;94015.56;5110823;28;20640;-47
2023/07/02 04:19:48;;;;;;;12.32;6.88;;;;;;;19.91;93.19;94021.38;5111649;28;20181;-46
2023/07/02 04:22:15;;;;;;;9.70;6.43;;;;;;;19.95;92.83;94021.75;5111287;28;20200;-44
2023/07/02 04:24:42;;;;;;;10.80;6.78;;;;;;;19.95;92.17;94030.34;5111083;28;20185;-43
2023/07/02 04:27:09;;;;;;;8.50;5.85;;;;;;;19.97;91.76;94030.91;5110209;28;20189;-43
2023/07/02 04:29:37;;;;;;;9.82;6.88;;;;;;;19.49;91.48;93965.78;5110512;28;20204;-43
2023/07/02 04:32:04;;;;;;;8.95;6.53;;;;;;;19.98;91.64;94039.47;5110494;28;20189;-49
2023/07/02 04:34:30;;;;;;;9.02;6.88;;;;;;;19.95;91.98;94040.72;5110858;28;20296;-45
2023/07/02 04:36:57;;;;;;;8.57;6.07;;;;;;;20.03;91.49;94050.00;5110822;28;20193;-45
2023/07/02 04:39:24;;;;;;;10.88;7.20;;;;;;;20.01;91.21;94065.81;5110851;28;20260;-46
2023/07/02 04:41:52;;;;;;;10.60;6.38;;;;;;;19.99;91.16;94064.41;5110878;28;20201;-44
2023/07/02 04:44:20;;;;;;;12.98;7.15;;;;;;;19.98;91.05;94063.63;5110505;28;20691;-45
2023/07/02 04:46:49;;;;;;;9.38;6.47;;;;;;;20.01;91.27;94059.81;5110455;28;20275;-43
2023/07/02 04:49:16;;;;;;;10.13;7.03;;;;;;;20.07;91.22;94053.78;5110305;28;20620;-45
2023/07/02 04:51:43;;;;;;;11.90;6.70;;;;;;;20.13;90.35;94058.16;5110973;28;20231;-44
2023/07/02 04:54:09;;;;;;;11.38;7.20;;;;;;;20.16;88.83;94062.88;5110340;28;20209;-43
2023/07/02 04:56:36;;;;;;;9.70;7.13;;;;;;;20.17;88.72;94068.91;5110898;28;20250;-46
2023/07/02 04:59:03;;;;;;;12.05;6.88;;;;;;;20.16;88.40;94062.88;5110134;28;20238;-44
2023/07/02 05:01:30;;;;;;;14.65;7.53;;;;;;;20.23;88.15;94068.03;5110188;28;20246;-46
2023/07/02 05:03:58;;;;;;;13.13;7.57;;;;;;;20.17;88.43;94068.91;5110333;28;20696;-45
2023/07/02 05:06:25;;;;;;;10.85;6.75;;;;;;;20.21;87.91;94065.66;5110486;28;20188;-45
2023/07/02 05:08:52;;;;;;;11.60;7.35;;;;;;;20.17;87.79;94056.72;5109966;28;20189;-45
2023/07/02 05:11:19;;;;;;;10.85;7.22;;;;;;;20.33;87.37;94076.13;5110221;28;20209;-43
2023/07/02 05:13:46;;;;;;;8.25;6.25;;;;;;;20.29;87.46;94072.38;5110546;28;20193;-45
2023/07/02 05:16:13;;;;;;;12.15;7.35;;;;;;;20.26;87.14;94067.63;5110320;28;20680;-45
2023/07/02 05:18:39;;;;;;;12.20;7.57;;;;;;;20.33;87.32;94077.94;5110357;28;20181;-42
2023/07/02 05:21:08;;;;;;;12.23;7.18;;;;;;;20.28;87.61;94081.19;5109823;28;20188;-44
2023/07/02 05:23:34;;;;;;;11.38;6.93;;;;;;;20.35;87.67;94078.53;5110090;28;20188;-45
2023/07/02 05:26:02;;;;;;;11.32;7.20;;;;;;;20.18;87.24;94044.53;5109992;28;20246;-44
2023/07/02 05:28:29;;;;;;;12.13;7.68;;;;;;;20.41;87.20;94072.47;5109968;28;20691;-43
2023/07/02 05:30:56;;;;;;;13.85;7.63;;;;;;;20.43;87.38;94073.88;5109916;28;20607;-45
2023/07/02 05:33:22;;;;;;;11.75;6.82;;;;;;;20.50;87.50;94068.63;5110248;28;20257;-44
2023/07/02 05:35:49;;;;;;;9.07;6.90;;;;;;;19.86;86.77;93953.75;5110040;28;20272;-44
2023/07/02 05:38:19;;;;;;;12.85;7.82;;;;;;;20.60;86.57;94068.97;5110203;28;20199;-44
2023/07/02 05:40:46;;;;;;;12.77;7.57;;;;;;;20.78;86.02;94081.16;5111861;28;20203;-43
2023/07/02 05:43:13;;;;;;;10.05;7.40;;;;;;;20.87;85.55;94082.47;5114195;28;20193;-45
2023/07/02 05:45:40;;;;;;;11.40;6.80;;;;;;;20.95;85.21;94086.59;5113772;28;20627;-42
2023/07/02 05:48:07;;;;;;;9.80;6.90;;;;;;;21.02;85.04;94089.91;5113903;28;20204;-46
2023/07/02 05:50:33;;;;;;;15.00;7.20;;;;;;;21.02;85.11;94090.69;5114294;28;20209;-46
2023/07/02 05:53:00;;;;;;;9.80;6.88;;;;;;;21.00;84.76;94079.72;5114163;28;20199;-44
2023/07/02 05:55:28;;;;;;;12.07;7.40;;;;;;;21.10;84.83;94083.63;5113928;28;20181;-44
2023/07/02 05:57:57;;;;;;;15.18;8.30;;;;;;;21.21;84.83;94096.69;5113620;28;20193;-46
2023/07/02 06:00:24;;;;;;;19.30;9.18;;;;;;;20.76;84.58;94018.22;5113888;28;20704;-43
2023/07/02 06:02:51;;;;;;;15.23;7.70;;;;;;;21.30;83.89;94090.19;5113930;28;20561;-43
2023/07/02 06:05:17;;;;;;;11.07;8.20;;;;;;;21.51;82.86;94085.56;5113891;28;20188;-43
2023/07/02 06:07:44;;;;;;;15.80;7.68;;;;;;;21.79;81.87;94090.19;5113366;28;20181;-43
2023/07/02 06:10:11;;;;;;;11.68;8.25;;;;;;;22.02;80.92;94086.84;5113502;28;20192;-44
2023/07/02 06:12:39;;;;;;;11.90;7.10;;;;;;;22.11;80.07;94085.53;5113319;28;20180;-43
2023/07/02 06:15:07;;;;;;;12.75;7.75;;;;;;;22.05;79.88;94060.38;5113463;28;20648;-44
2023/07/02 06:17:34;;;;;;;12.18;7.40;;;;;;;22.17;79.92;94069.03;5113318;28;20218;-43
2023/07/02 06:20:01;;;;;;;15.27;8.77;;;;;;;22.17;79.35;94076.84;5113584;28;20178;-44
2023/07/02 06:22:27;;;;;;;11.68;7.75;;;;;;;22.04;79.95;94070.00;5113657;28;20181;-45
2023/07/02 06:24:54;;;;;;;11.90;7.72;;;;;;;22.12;80.57;94063.69;5113517;28;20609;-45
2023/07/02 06:27:21;;;;;;;10.35;7.57;;;;;;;22.23;80.49;94068.13;5113407;28;20290;-45
2023/07/02 06:29:49;;;;;;;11.63;7.30;;;;;;;22.26;79.55;94057.25;5112944;28;20197;-44
2023/07/02 06:32:16;;;;;;;14.38;7.60;;;;;;;22.38;78.62;94059.88;5113596;28;20224;-44
2023/07/02 06:34:43;;;;;;;9.57;7.40;;;;;;;22.50;78.35;94052.88;5113100;28;20273;-46
2023/07/02 06:37:09;;;;;;;13.20;7.60;;;;;;;22.67;77.96;94065.22;5113146;28;20235;-44
2023/07/02 06:39:36;;;;;;;11.60;7.18;;;;;;;22.77;77.20;94055.00;5112957;28;20193;-44
2023/07/02 06:42:03;;;;;;;12.45;7.85;;;;;;;23.02;76.53;94058.16;5113047;28;20185;-46
2023/07/02 06:44:30;;;;;;;9.30;7.47;;;;;;;23.27;74.65;94057.06;5112753;28;20189;-44
2023/07/02 06:46:58;;;;;;;13.10;7.55;;;;;;;23.41;73.90;94053.19;5112860;28;20687;-44
2023/07/02 06:49:25;;;;;;;12.57;7.68;;;;;;;23.50;73.83;94057.00;5112625;28;20191;-45
2023/07/02 06:51:52;;;;;;;11.75;8.00;;;;;;;23.58;74.06;94055.84;5112132;28;20632;-43
2023/07/02 06:54:19;;;;;;;13.00;8.02;;;;;;;23.67;73.49;94051.84;5112868;28;20193;-43
2023/07/02 06:56:45;;;;;;;13.80;7.60;;;;;;;23.73;73.63;94055.34;5112675;28;20192;-44
2023/07/02 06:59:12;;;;;;;11.57;6.85;;;;;;;23.81;73.66;94057.56;5112522;28;20189;-42
2023/07/02 07:01:39;;;;;;;12.05;7.25;;;;;;;23.85;72.99;94063.91;5112401;28;20588;-42
2023/07/02 07:04:07;;;;;;;13.57;7.55;;;;;;;23.87;73.34;94059.22;5112653;28;20181;-44
2023/07/02 07:06:34;;;;;;;10.27;7.78;;;;;;;24.04;71.94;94067.88;5112438;28;20562;-44
2023/07/02 07:09:01;;;;;;;9.98;7.70;;;;;;;24.21;71.80;94067.88;5112417;28;20214;-45
2023/07/02 07:11:27;;;;;;;10.00;7.15;;;;;;;24.39;71.84;94074.72;5112572;28;20224;-48
2023/07/02 07:13:54;;;;;;;8.45;6.45;;;;;;;24.50;70.55;94071.25;5112753;28;20181;-45
2023/07/02 07:16:21;;;;;;;9.63;7.75;;;;;;;24.64;70.05;94057.84;5112283;28;20193;-45
2023/07/02 07:18:48;;;;;;;9.57;7.00;;;;;;;24.77;69.77;94060.09;5112399;28;20256;-45
2023/07/02 07:21:16;;;;;;;11.30;7.82;;;;;;;24.74;69.62;94063.19;5111942;28;20693;-44
2023/07/02 07:23:43;;;;;;;9.73;7.90;;;;;;;24.75;69.71;94052.50;5112349;28;20193;-44
2023/07/02 07:26:10;;;;;;;11.25;7.03;;;;;;;25.04;70.01;94068.03;5111840;28;20533;-45
2023/07/02 07:28:37;;;;;;;11.70;7.40;;;;;;;25.32;68.10;94053.25;5111910;28;20236;-45
2023/07/02 07:31:03;;;;;;;9.50;6.68;;;;;;;25.48;66.73;94065.47;5111717;28;20235;-44
2023/07/02 07:33:30;;;;;;;12.77;6.93;;;;;;;25.54;66.18;94061.84;5112160;28;20177;-45
2023/07/02 07:35:57;;;;;;;10.25;7.45;;;;;;;25.61;65.79;94059.84;5112390;28;20177;-44
2023/07/02 07:38:25;;;;;;;10.57;7.03;;;;;;;25.59;65.84;94058.50;5111850;28;20197;-43
2023/07/02 07:40:52;;;;;;;10.65;7.13;;;;;;;25.44;65.86;94038.19;5111951;28;20199;-46
2023/07/02 07:43:19;;;;;;;15.23;8.05;;;;;;;25.47;65.81;94046.31;5112151;28;20193;-44
2023/07/02 07:45:46;;;;;;;10.77;7.22;;;;;;;25.49;66.08;94046.88;5111831;28;20197;-45
2023/07/02 07:48:12;;;;;;;10.93;6.90;;;;;;;25.52;66.38;94059.50;5111654;28;20189;-45
2023/07/02 07:50:39;;;;;;;9.68;6.57;;;;;;;25.88;65.39;94061.69;5111851;28;20193;-46
2023/07/02 07:53:06;;;;;;;8.52;6.80;;;;;;;26.41;63.68;94052.94;5111799;28;20196;-44
2023/07/02 07:55:34;;;;;;;8.30;6.32;;;;;;;27.00;61.65;94065.94;5111878;28;20200;-45
2023/07/02 07:58:01;;;;;;;11.00;6.78;;;;;;;27.47;59.62;94061.69;5111677;28;20178;-47
2023/07/02 08:00:28;;;;;;;11.23;6.45;;;;;;;27.82;58.12;94068.13;5112000;28;20245;-46
2023/07/02 08:02:55;;;;;;;8.73;6.32;;;;;;;27.91;56.65;94064.72;5110702;28;20573;-45
2023/07/02 08:05:22;;;;;;;9.07;6.72;;;;;;;28.00;57.20;94070.25;5111787;28;20246;-45
2023/07/02 08:07:49;;;;;;;13.70;6.10;;;;;;;28.14;56.56;94068.66;5111769;28;20193;-44
2023/07/02 08:10:16;;;;;;;7.60;6.15;;;;;;;28.38;56.48;94062.94;5111226;28;20242;-46
2023/07/02 08:12:45;;;;;;;8.82;6.13;;;;;;;28.58;55.47;94070.78;5111396;28;20220;-45
2023/07/02 08:15:12;;;;;;;11.00;6.15;;;;;;;28.86;54.02;94068.66;5111486;28;20196;-44
2023/07/02 08:17:39;;;;;;;8.77;5.88;;;;;;;29.02;54.12;94069.41;5111339;28;20197;-45
2023/07/02 08:20:09;;;;;;;7.13;5.93;;;;;;;29.06;53.84;94054.66;5111016;28;20246;-46
2023/07/02 08:22:36;;;;;;;9.88;6.53;;;;;;;29.19;53.30;94064.63;5111450;28;20234;-45
2023/07/02 08:25:03;;;;;;;6.85;5.40;;;;;;;29.33;52.46;94062.22;5111174;28;20192;-45
2023/07/02 08:27:29;;;;;;;8.43;6.38;;;;;;;29.53;52.66;94062.09;5111459;28;20236;-46
2023/07/02 08:29:57;;;;;;;9.00;6.22;;;;;;;29.66;51.89;94063.38;5111244;28;20245;-44
2023/07/02 08:32:24;;;;;;;13.30;6.45;;;;;;;29.56;52.45;94058.16;5111147;28;20216;-45
2023/07/02 08:34:51;;;;;;;11.48;6.45;;;;;;;29.64;52.27;94052.34;5110937;28;20193;-46
2023/07/02 08:37:18;;;;;;;6.03;5.45;;;;;;;29.86;52.17;94059.84;5111187;28;20254;-49
2023/07/02 08:39:45;;;;;;;8.07;5.53;;;;;;;29.92;51.40;94064.00;5110725;28;20193;-45
2023/07/02 08:42:12;;;;;;;7.15;5.75;;;;;;;29.84;51.23;94051.44;5111204;28;20305;-43
2023/07/02 08:44:39;;;;;;;10.50;5.68;;;;;;;29.82;51.41;94062.22;5111683;28;20185;-46
2023/07/02 08:47:08;;;;;;;8.73;6.07;;;;;;;29.96;51.43;94062.41;5111263;28;20196;-43
2023/07/02 08:49:35;;;;;;;10.07;6.32;;;;;;;29.94;50.96;94060.06;5111206;28;20235;-43
2023/07/02 08:52:02;;;;;;;6.70;5.30;;;;;;;29.70;50.86;94052.03;5110441;28;20225;-46
2023/07/02 08:54:28;;;;;;;11.70;6.00;;;;;;;29.57;51.51;94060.53;5110352;28;20257;-45
2023/07/02 08:56:56;;;;;;;10.05;5.82;;;;;;;29.46;52.20;94051.09;5110578;28;20188;-44
2023/07/02 08:59:22;;;;;;;8.98;5.75;;;;;;;29.21;52.23;94038.81;5110977;28;20174;-46
2023/07/02 09:01:50;;;;;;;9.70;5.82;;;;;;;29.25;52.01;94050.38;5110592;28;20188;-45
2023/07/02 09:04:20;;;;;;;6.97;6.05;;;;;;;29.14;52.02;94039.09;5110451;28;20192;-46
2023/07/02 09:06:48;;;;;;;8.43;5.35;;;;;;;29.06;52.45;94052.03;5110574;28;20197;-46
2023/07/02 09:09:15;;;;;;;9.68;6.57;;;;;;;29.00;53.31;94048.63;5110417;28;20192;-44
2023/07/02 09:11:49;;;;;;;9.65;6.05;;;;;;;29.12;54.04;94050.97;5110381;28;20216;-44
2023/07/02 09:14:26;;;;;;;8.50;5.50;;;;;;;29.32;52.95;94044.81;5110438;28;20296;-46
2023/07/02 09:17:06;;;;;;;9.15;5.93;;;;;;;29.45;52.20;94023.94;5109975;28;20358;-45
2023/07/02 09:19:35;;;;;;;7.57;5.65;;;;;;;29.71;52.14;94048.34;5110342;28;20184;-45
2023/07/02 09:22:02;;;;;;;10.35;5.88;;;;;;;29.70;52.27;94041.47;5109713;28;20199;-44
2023/07/02 09:24:30;;;;;;;8.13;5.50;;;;;;;29.69;52.54;94037.28;5110524;28;20196;-44
2023/07/02 09:26:59;;;;;;;6.53;5.45;;;;;;;29.60;52.65;94033.63;5110179;28;20317;-44
2023/07/02 09:29:28;;;;;;;7.53;5.95;;;;;;;29.63;52.15;94042.84;5110023;28;20208;-42
2023/07/02 09:31:56;;;;;;;8.93;6.03;;;;;;;29.48;52.45;94028.66;5109765;28;20217;-45
2023/07/02 09:34:29;;;;;;;7.88;6.07;;;;;;;29.54;52.10;94047.88;5109883;28;20720;-45
2023/07/02 09:36:57;;;;;;;8.63;5.97;;;;;;;29.44;52.27;94040.78;5110178;28;20415;-45
2023/07/02 09:39:27;;;;;;;8.77;6.07;;;;;;;29.55;52.28;94036.28;5110134;28;20207;-45
2023/07/02 09:41:56;;;;;;;9.57;5.82;;;;;;;29.47;52.28;94035.00;5109663;28;20193;-45
2023/07/02 09:44:23;;;;;;;8.95;5.88;;;;;;;29.38;52.86;94036.63;5110043;28;20196;-45
2023/07/02 09:46:56;;;;;;;7.00;5.15;;;;;;;29.34;53.21;94034.81;5109553;28;20192;-46
2023/07/02 09:49:24;;;;;;;5.78;4.85;;;;;;;29.48;52.42;94033.16;5110030;28;20182;-45
2023/07/02 09:51:51;;;;;;;9.90;5.70;;;;;;;29.52;51.87;94026.28;5109665;28;20209;-44
2023/07/02 09:54:20;;;;;;;8.48;5.05;;;;;;;29.41;51.99;94025.56;5110095;28;20196;-45
2023/07/02 09:56:47;;;;;;;8.32;5.53;;;;;;;29.05;52.15;94014.38;5109922;28;20181;-45
2023/07/02 09:59:15;;;;;;;6.15;5.03;;;;;;;29.01;52.86;94026.50;5109724;28;20660;-44
2023/07/02 10:01:41;;;;;;;6.25;4.95;;;;;;;29.04;53.66;94025.19;5109829;28;20203;-43
2023/07/02 10:04:13;;;;;;;8.02;5.22;;;;;;;29.04;52.96;94023.34;5109800;28;20193;-46
2023/07/02 10:06:47;;;;;;;10.75;5.45;;;;;;;29.09;52.72;94019.88;5109940;28;20213;-44
2023/07/02 10:09:14;;;;;;;7.88;5.32;;;;;;;29.25;52.62;94022.19;5109901;28;20246;-46
2023/07/02 10:11:43;;;;;;;6.63;5.13;;;;;;;29.30;52.69;94021.38;5109597;28;20744;-45
2023/07/02 10:14:10;;;;;;;8.40;5.57;;;;;;;29.18;51.85;94013.78;5109746;28;20381;-44
2023/07/02 10:16:50;;;;;;;8.57;5.15;;;;;;;29.05;52.63;94001.19;5109655;28;20652;-45
2023/07/02 10:19:17;;;;;;;11.38;5.63;;;;;;;28.87;52.87;94007.81;5109669;28;20279;-46
2023/07/02 10:21:45;;;;;;;5.22;4.72;;;;;;;28.72;52.99;93987.63;5109600;28;20282;-44
2023/07/02 10:24:13;;;;;;;4.50;4.07;;;;;;;28.86;53.60;93987.03;5109436;28;20200;-44
2023/07/02 10:26:40;;;;;;;6.93;5.13;;;;;;;28.94;53.07;93994.38;5111438;28;20607;-44
2023/07/02 10:29:08;;;;;;;8.38;5.35;;;;;;;28.97;52.68;93986.78;5112950;28;20710;-44
2023/07/02 10:31:36;;;;;;;5.43;4.50;;;;;;;28.81;52.86;93989.69;5113181;28;20288;-45
2023/07/02 10:34:03;;;;;;;6.88;5.07;;;;;;;28.69;52.97;93993.41;5113218;28;20227;-44
2023/07/02 10:36:30;;;;;;;5.82;5.30;;;;;;;28.48;54.25;93997.94;5113516;28;20181;-43
2023/07/02 10:39:04;;;;;;;9.32;5.15;;;;;;;28.49;54.27;93999.50;5113382;28;20554;-45
2023/07/02 10:41:31;;;;;;;5.70;4.85;;;;;;;28.64;53.42;94001.31;5113219;28;20668;-44
2023/07/02 10:44:08;;;;;;;8.32;5.57;;;;;;;28.82;53.49;93997.31;5113165;28;20234;-45
2023/07/02 10:46:35;;;;;;;10.63;5.38;;;;;;;29.00;52.77;93993.34;5113256;28;20211;-45
2023/07/02 10:49:02;;;;;;;6.65;4.78;;;;;;;29.12;51.90;93998.28;5113135;28;20185;-46
2023/07/02 10:51:29;;;;;;;7.15;4.78;;;;;;;29.16;51.35;93991.44;5112935;28;20193;-44
2023/07/02 10:54:00;;;;;;;5.95;4.97;;;;;;;29.23;51.44;93994.53;5112682;28;20192;-46
2023/07/02 10:56:27;;;;;;;6.20;4.40;;;;;;;29.34;47.78;93990.81;5112839;28;20189;-44
2023/07/02 10:58:54;;;;;;;4.93;4.18;;;;;;;29.48;45.96;93983.09;5112624;28;20197;-46
2023/07/02 11:01:30;;;;;;;4.55;4.15;;;;;;;29.71;44.74;93987.72;5113108;28;20272;-45
2023/07/02 11:03:59;;;;;;;4.60;4.20;;;;;;;29.86;43.43;93988.66;5113019;28;20203;-44
2023/07/02 11:06:26;;;;;;;5.25;4.75;;;;;;;29.72;42.92;93981.38;5112982;28;20228;-44
2023/07/02 11:08:54;;;;;;;5.88;4.45;;;;;;;29.77;43.08;93982.41;5112305;28;20216;-46
2023/07/02 11:11:22;;;;;;;5.78;3.90;;;;;;;29.83;42.67;93982.06;5112589;28;20185;-45
2023/07/02 11:13:49;;;;;;;4.47;4.07;;;;;;;29.90;42.66;93982.56;5112308;28;20212;-45
2023/07/02 11:16:22;;;;;;;5.43;4.78;;;;;;;29.82;43.70;93971.81;5112306;28;20268;-45
2023/07/02 11:18:50;;;;;;;5.70;4.25;;;;;;;29.66;44.19;93973.78;5112361;28;20196;-45
2023/07/02 11:21:17;;;;;;;7.03;4.05;;;;;;;29.65;44.42;93967.72;5112250;28;20181;-44
2023/07/02 11:23:44;;;;;;;5.10;4.60;;;;;;;29.79;44.85;93975.00;5111992;28;20189;-45
2023/07/02 11:26:11;;;;;;;5.53;4.57;;;;;;;30.05;45.16;93988.78;5112271;28;20541;-45
2023/07/02 11:28:49;;;;;;;7.88;4.80;;;;;;;30.29;47.31;94005.47;5112113;28;20221;-45
2023/07/02 11:31:25;;;;;;;5.65;4.63;;;;;;;30.25;49.11;94004.47;5112086;28;20303;-45